createdAt,value
2024-04-30T00:01:54.861Z,59.31
2024-04-30T00:04:22.318Z,59.49
2024-04-30T00:06:52.287Z,59.56
2024-04-30T00:09:19.596Z,59.70
2024-04-30T00:11:52.347Z,59.70
2024-04-30T00:14:19.796Z,59.98
2024-04-30T00:16:49.906Z,59.94
2024-04-30T00:19:17.438Z,59.99
2024-04-30T00:21:47.473Z,59.77
2024-04-30T00:24:14.797Z,59.79
2024-04-30T00:26:44.831Z,59.75
2024-04-30T00:29:15.633Z,60.12
2024-04-30T00:31:45.618Z,60.41
2024-04-30T00:34:12.957Z,60.07
2024-04-30T00:36:43.205Z,60.30
2024-04-30T00:39:10.406Z,60.08
2024-04-30T00:41:40.393Z,60.26
2024-04-30T00:44:07.831Z,60.08
2024-04-30T00:46:40.683Z,60.57
2024-04-30T00:49:08.186Z,60.55
2024-04-30T00:51:38.267Z,60.86
2024-04-30T00:54:05.618Z,61.14
2024-04-30T00:56:35.483Z,60.97
2024-04-30T00:59:02.666Z,61.20
2024-04-30T01:01:32.649Z,61.64
2024-04-30T01:04:02.578Z,61.76
2024-04-30T01:06:32.391Z,61.53
2024-04-30T01:08:59.283Z,61.94
2024-04-30T01:11:29.222Z,62.18
2024-04-30T01:13:56.359Z,62.06
2024-04-30T01:16:26.230Z,61.77
2024-04-30T01:18:53.485Z,62.38
2024-04-30T01:21:25.944Z,62.30
2024-04-30T01:23:55.757Z,62.31
2024-04-30T01:26:25.581Z,62.58
2024-04-30T01:28:52.850Z,62.72
2024-04-30T01:31:22.722Z,62.21
2024-04-30T01:33:49.923Z,62.39
2024-04-30T01:36:19.708Z,62.09
2024-04-30T01:38:46.656Z,62.12
2024-04-30T01:41:19.364Z,62.32
2024-04-30T01:43:46.575Z,62.24
2024-04-30T01:46:16.369Z,62.94
2024-04-30T01:48:43.597Z,62.24
2024-04-30T01:51:13.349Z,62.13
2024-04-30T01:53:43.883Z,62.07
2024-04-30T01:56:13.786Z,61.54
2024-04-30T01:58:46.408Z,61.80
2024-04-30T02:01:17.307Z,61.69
2024-04-30T02:03:47.288Z,61.70
2024-04-30T02:06:14.518Z,61.61
2024-04-30T02:08:44.299Z,62.00
2024-04-30T02:11:11.589Z,62.29
2024-04-30T02:13:41.487Z,62.25
2024-04-30T02:16:11.399Z,62.92
2024-04-30T02:18:41.463Z,62.66
2024-04-30T02:21:08.630Z,62.88
2024-04-30T02:23:38.364Z,62.83
2024-04-30T02:26:07.923Z,62.88
2024-04-30T02:28:35.333Z,62.82
2024-04-30T02:31:21.275Z,63.32
2024-04-30T02:34:09.770Z,63.11
2024-04-30T02:36:39.513Z,62.97
2024-04-30T02:39:09.235Z,62.94
2024-04-30T02:41:38.848Z,62.93
2024-04-30T02:44:08.696Z,62.89
2024-04-30T02:46:36.008Z,63.45
2024-04-30T02:49:08.569Z,63.11
2024-04-30T02:51:35.936Z,63.22
2024-04-30T02:54:05.718Z,63.62
2024-04-30T02:56:32.945Z,64.36
2024-04-30T02:59:02.748Z,64.03
2024-04-30T03:01:29.866Z,63.85
2024-04-30T03:03:59.774Z,63.98
2024-04-30T03:06:29.635Z,64.29
2024-04-30T03:08:59.455Z,63.95
2024-04-30T03:11:26.750Z,64.23
2024-04-30T03:13:56.843Z,64.09
2024-04-30T03:16:24.207Z,63.92
2024-04-30T03:18:54.209Z,63.71
2024-04-30T03:21:21.391Z,63.55
2024-04-30T03:23:53.924Z,63.87
2024-04-30T03:26:21.173Z,64.68
2024-04-30T03:28:51.097Z,64.83
2024-04-30T03:31:21.360Z,64.59
2024-04-30T03:33:51.273Z,64.14
2024-04-30T03:36:19.661Z,65.12
2024-04-30T03:38:49.519Z,64.79
2024-04-30T03:41:22.029Z,64.37
2024-04-30T03:43:51.902Z,64.21
2024-04-30T03:46:21.857Z,64.23
2024-04-30T03:48:51.907Z,63.46
2024-04-30T03:51:19.767Z,63.86
2024-04-30T03:53:49.839Z,64.24
2024-04-30T03:56:22.339Z,64.68
2024-04-30T03:58:49.566Z,64.41
2024-04-30T04:01:19.658Z,63.43
2024-04-30T04:03:46.837Z,63.69
2024-04-30T04:06:17.802Z,63.57
2024-04-30T04:08:45.321Z,63.76
2024-04-30T04:11:31.132Z,63.28
2024-04-30T04:14:19.430Z,62.09
2024-04-30T04:16:49.251Z,61.82
2024-04-30T04:19:19.104Z,61.84
2024-04-30T04:21:49.048Z,61.37
2024-04-30T04:24:18.841Z,62.09
2024-04-30T04:26:46.163Z,62.17
2024-04-30T04:29:18.874Z,61.00
2024-04-30T04:31:47.149Z,60.68
2024-04-30T04:34:17.032Z,61.16
2024-04-30T04:36:44.961Z,61.49
2024-04-30T04:39:15.016Z,60.22
2024-04-30T04:41:42.712Z,60.20
2024-04-30T04:44:12.630Z,60.19
2024-04-30T04:46:42.460Z,59.85
2024-04-30T04:49:12.744Z,59.57
2024-04-30T04:51:39.945Z,58.73
2024-04-30T04:54:09.719Z,57.49
2024-04-30T04:56:36.646Z,57.76
2024-04-30T04:59:06.466Z,59.75
2024-04-30T05:01:33.712Z,60.56
2024-04-30T05:04:07.323Z,61.05
2024-04-30T05:06:34.595Z,60.50
2024-04-30T05:09:04.339Z,60.13
2024-04-30T05:11:31.408Z,61.08
2024-04-30T05:14:01.432Z,61.95
2024-04-30T05:16:28.797Z,60.15
2024-04-30T05:18:59.795Z,60.71
2024-04-30T05:21:31.015Z,60.98
2024-04-30T05:24:00.851Z,60.40
2024-04-30T05:26:27.983Z,60.50
2024-04-30T05:28:57.934Z,61.52
2024-04-30T05:31:25.135Z,61.17
2024-04-30T05:33:55.032Z,61.13
2024-04-30T05:36:22.336Z,60.99
2024-04-30T05:38:54.758Z,60.08
2024-04-30T05:41:22.053Z,59.24
2024-04-30T05:43:51.854Z,59.66
2024-04-30T05:46:19.126Z,60.54
2024-04-30T05:48:48.962Z,61.41
2024-04-30T05:51:15.972Z,60.88
2024-04-30T05:53:45.730Z,60.28
2024-04-30T05:56:15.423Z,60.79
2024-04-30T05:58:45.009Z,59.74
2024-04-30T06:01:14.551Z,59.34
2024-04-30T06:03:44.557Z,59.54
2024-04-30T06:06:12.058Z,58.86
2024-04-30T06:08:42.067Z,59.29
2024-04-30T06:11:09.734Z,59.18
2024-04-30T06:13:44.196Z,59.36
2024-04-30T06:16:11.535Z,57.98
2024-04-30T06:18:41.387Z,56.64
2024-04-30T06:21:11.766Z,57.05
2024-04-30T06:23:42.088Z,57.25
2024-04-30T06:26:09.327Z,56.85
2024-04-30T06:28:41.960Z,57.38
2024-04-30T06:31:09.360Z,57.66
2024-04-30T06:33:39.416Z,56.87
2024-04-30T06:36:07.322Z,57.00
2024-04-30T06:38:37.316Z,56.17
2024-04-30T06:41:05.025Z,56.62
2024-04-30T06:43:35.049Z,56.71
2024-04-30T06:46:05.268Z,55.40
2024-04-30T06:48:35.262Z,55.20
2024-04-30T06:51:03.169Z,54.35
2024-04-30T06:53:33.190Z,53.88
2024-04-30T06:56:00.530Z,53.04
2024-04-30T06:58:30.427Z,54.33
2024-04-30T07:00:57.780Z,53.84
2024-04-30T07:03:30.731Z,54.35
2024-04-30T07:05:58.203Z,54.50
2024-04-30T07:08:28.135Z,54.37
2024-04-30T07:10:56.505Z,54.85
2024-04-30T07:13:28.892Z,54.15
2024-04-30T07:15:56.207Z,53.21
2024-04-30T07:18:26.293Z,53.88
2024-04-30T07:20:56.275Z,53.67
2024-04-30T07:23:27.482Z,53.08
2024-04-30T07:25:54.881Z,53.40
2024-04-30T07:28:25.315Z,52.14
2024-04-30T07:30:52.814Z,52.57
2024-04-30T07:33:24.146Z,52.00
2024-04-30T07:35:51.454Z,52.02
2024-04-30T07:38:24.091Z,51.60
2024-04-30T07:40:52.022Z,51.36
2024-04-30T07:43:22.182Z,50.73
2024-04-30T07:45:52.379Z,51.59
2024-04-30T07:48:19.758Z,51.11
2024-04-30T07:50:50.029Z,51.47
2024-04-30T07:53:17.432Z,50.63
2024-04-30T07:55:50.126Z,49.75
2024-04-30T07:58:17.466Z,48.41
2024-04-30T08:00:48.003Z,48.77
2024-04-30T08:03:15.382Z,48.99
2024-04-30T08:05:45.458Z,47.73
2024-04-30T08:08:13.806Z,47.47
2024-04-30T08:10:44.219Z,46.97
2024-04-30T08:13:14.392Z,46.63
2024-04-30T08:15:44.677Z,45.85
2024-04-30T08:18:12.162Z,46.68
2024-04-30T08:20:42.147Z,46.37
2024-04-30T08:23:09.546Z,45.88
2024-04-30T08:25:39.455Z,45.35
2024-04-30T08:28:09.075Z,44.30
2024-04-30T08:30:41.714Z,44.46
2024-04-30T08:33:09.307Z,43.80
2024-04-30T08:35:39.276Z,43.75
2024-04-30T08:38:11.210Z,43.61
2024-04-30T08:40:42.046Z,42.55
2024-04-30T08:43:11.373Z,42.95
2024-04-30T08:45:46.630Z,41.84
2024-04-30T08:48:17.636Z,41.62
2024-04-30T08:50:49.334Z,42.08
2024-04-30T08:53:19.854Z,40.57
2024-04-30T08:55:51.190Z,41.74
2024-04-30T08:58:18.453Z,42.70
2024-04-30T09:00:52.228Z,41.45
2024-04-30T09:03:25.471Z,41.06
2024-04-30T09:05:57.721Z,40.79
2024-04-30T09:08:25.286Z,40.00
2024-04-30T09:10:55.250Z,40.04
2024-04-30T09:13:34.277Z,39.16
2024-04-30T09:16:10.219Z,39.06
2024-04-30T09:18:37.760Z,38.53
2024-04-30T09:21:16.777Z,38.06
2024-04-30T09:23:44.841Z,38.46
2024-04-30T09:26:14.619Z,39.23
2024-04-30T09:28:43.682Z,39.25
2024-04-30T09:31:16.229Z,38.30
2024-04-30T09:33:54.476Z,37.84
2024-04-30T09:36:24.474Z,38.69
2024-04-30T09:38:54.391Z,37.36
2024-04-30T09:41:27.630Z,38.57
2024-04-30T09:43:55.200Z,38.39
2024-04-30T09:46:29.991Z,38.83
2024-04-30T09:48:59.061Z,37.87
2024-04-30T09:51:33.183Z,38.31
2024-04-30T09:54:02.040Z,38.46
2024-04-30T09:56:32.787Z,38.40
2024-04-30T09:59:01.279Z,39.02
2024-04-30T10:01:39.289Z,38.82
2024-04-30T10:04:07.651Z,38.27
2024-04-30T10:06:40.687Z,39.18
2024-04-30T10:09:10.692Z,38.40
2024-04-30T10:11:46.594Z,38.70
2024-04-30T10:14:16.583Z,38.25
2024-04-30T10:16:58.654Z,37.76
2024-04-30T10:19:28.900Z,36.33
2024-04-30T10:21:56.209Z,36.26
2024-04-30T10:24:26.918Z,36.64
2024-04-30T10:26:54.207Z,36.26
2024-04-30T10:29:24.284Z,35.80
2024-04-30T10:31:51.449Z,35.67
2024-04-30T10:34:23.968Z,35.87
2024-04-30T10:36:54.131Z,35.32
2024-04-30T10:39:26.114Z,35.68
2024-04-30T10:41:56.218Z,35.76
2024-04-30T10:44:23.502Z,33.93
2024-04-30T10:46:53.759Z,34.21
2024-04-30T10:49:26.312Z,33.69
2024-04-30T10:51:53.805Z,33.05
2024-04-30T10:54:23.866Z,30.83
2024-04-30T10:56:51.018Z,30.58
2024-04-30T10:59:29.105Z,29.98
2024-04-30T11:01:58.878Z,29.83
2024-04-30T11:04:34.146Z,29.89
2024-04-30T11:07:01.902Z,29.68
2024-04-30T11:09:31.860Z,30.25
2024-04-30T11:12:02.569Z,29.85
2024-04-30T11:14:32.736Z,30.32
2024-04-30T11:17:00.120Z,29.82
2024-04-30T11:19:29.989Z,30.47
2024-04-30T11:22:00.195Z,29.16
2024-04-30T11:24:30.054Z,30.20
2024-04-30T11:26:57.380Z,29.80
2024-04-30T11:29:35.063Z,29.77
2024-04-30T11:32:07.255Z,30.03
2024-04-30T11:34:37.332Z,28.62
2024-04-30T11:37:10.018Z,28.66
2024-04-30T11:39:37.231Z,28.48
2024-04-30T11:44:39.615Z,28.65
2024-04-30T11:47:09.838Z,29.18
2024-04-30T11:49:37.577Z,29.50
2024-04-30T11:52:10.186Z,29.37
2024-04-30T11:54:37.570Z,29.71
2024-04-30T11:57:08.185Z,28.41
2024-04-30T11:59:36.157Z,28.95
2024-04-30T12:02:06.498Z,29.22
2024-04-30T12:04:33.818Z,28.41
2024-04-30T12:07:03.678Z,27.49
2024-04-30T12:09:33.613Z,27.93
2024-04-30T12:12:03.505Z,28.21
2024-04-30T12:14:30.660Z,27.24
2024-04-30T12:17:00.760Z,27.56
2024-04-30T12:19:28.098Z,28.04
2024-04-30T12:21:59.223Z,27.78
2024-04-30T12:24:26.815Z,26.75
2024-04-30T12:26:59.393Z,25.74
2024-04-30T12:29:26.625Z,26.59
2024-04-30T12:31:56.382Z,26.59
2024-04-30T12:34:23.583Z,26.45
2024-04-30T12:36:53.452Z,25.16
2024-04-30T12:39:20.692Z,24.85
2024-04-30T12:41:51.323Z,23.73
2024-04-30T12:44:21.212Z,25.08
2024-04-30T12:46:50.978Z,24.72
2024-04-30T12:49:18.247Z,24.69
2024-04-30T12:51:48.276Z,23.87
2024-04-30T12:54:15.421Z,24.42
2024-04-30T12:56:45.226Z,24.15
2024-04-30T12:59:14.552Z,23.66
2024-04-30T13:01:47.246Z,24.24
2024-04-30T13:04:14.722Z,23.83
2024-04-30T13:06:44.698Z,23.01
2024-04-30T13:09:11.888Z,23.51
2024-04-30T13:11:43.186Z,22.97
2024-04-30T13:14:14.830Z,24.10
2024-04-30T13:16:47.068Z,23.14
2024-04-30T13:19:17.018Z,23.34
2024-04-30T13:21:44.231Z,23.27
2024-04-30T13:24:14.881Z,22.85
2024-04-30T13:26:42.125Z,22.59
2024-04-30T13:29:11.902Z,22.29
2024-04-30T13:31:47.020Z,22.02
2024-04-30T13:34:17.035Z,22.02
2024-04-30T13:36:44.669Z,22.50
2024-04-30T13:39:15.607Z,22.25
2024-04-30T13:41:42.978Z,22.71
2024-04-30T13:44:12.928Z,22.92
2024-04-30T13:46:41.927Z,22.04
2024-04-30T13:49:14.419Z,23.09
2024-04-30T13:51:41.694Z,21.78
2024-04-30T13:54:11.664Z,22.32
2024-04-30T13:56:39.057Z,22.67
2024-04-30T13:59:09.487Z,22.32
2024-04-30T14:01:36.840Z,21.69
2024-04-30T14:04:06.940Z,21.75
2024-04-30T14:06:36.861Z,21.44
2024-04-30T14:09:08.397Z,20.73
2024-04-30T14:11:37.505Z,21.01
2024-04-30T14:14:07.634Z,21.81
2024-04-30T14:16:34.944Z,21.81
2024-04-30T14:19:04.773Z,20.87
2024-04-30T14:21:31.985Z,21.29
2024-04-30T14:24:04.497Z,21.15
2024-04-30T14:26:32.276Z,21.64
2024-04-30T14:29:02.057Z,21.68
2024-04-30T14:31:29.321Z,21.49
2024-04-30T14:33:59.273Z,20.45
2024-04-30T14:36:35.673Z,20.18
2024-04-30T14:39:12.220Z,19.18
2024-04-30T14:41:43.483Z,19.10
2024-04-30T14:44:12.349Z,19.18
2024-04-30T14:46:43.489Z,19.38
2024-04-30T14:49:11.692Z,18.93
2024-04-30T14:51:43.466Z,16.84
2024-04-30T14:54:14.994Z,17.15
2024-04-30T14:56:45.107Z,16.67
2024-04-30T14:59:15.211Z,18.38
2024-04-30T15:01:43.133Z,16.65
2024-04-30T15:04:13.658Z,18.02
2024-04-30T15:06:41.007Z,16.70
2024-04-30T15:09:12.620Z,16.58
2024-04-30T15:11:42.523Z,17.64
2024-04-30T15:14:12.402Z,16.62
2024-04-30T15:16:43.153Z,17.65
2024-04-30T15:19:13.564Z,16.12
2024-04-30T15:21:44.379Z,17.48
2024-04-30T15:24:14.598Z,17.47
2024-04-30T15:26:44.633Z,18.15
2024-04-30T15:29:15.908Z,16.96
2024-04-30T15:31:43.314Z,18.16
2024-04-30T15:34:13.501Z,16.63
2024-04-30T15:36:44.079Z,16.93
2024-04-30T15:39:18.552Z,16.14
2024-04-30T15:41:48.760Z,16.99
2024-04-30T15:44:18.744Z,15.89
2024-04-30T15:46:46.033Z,15.91
2024-04-30T15:49:15.941Z,15.64
2024-04-30T15:51:43.163Z,17.02
2024-04-30T15:54:17.461Z,16.73
2024-04-30T15:56:54.107Z,17.25
2024-04-30T15:59:28.489Z,17.21
2024-04-30T16:01:55.909Z,18.14
2024-04-30T16:04:26.010Z,17.70
2024-04-30T16:06:53.478Z,16.86
2024-04-30T16:09:23.305Z,16.98
2024-04-30T16:11:54.160Z,16.11
2024-04-30T16:14:25.218Z,15.88
2024-04-30T16:16:52.625Z,16.79
2024-04-30T16:19:23.646Z,17.71
2024-04-30T16:21:54.855Z,17.91
2024-04-30T16:24:25.563Z,18.17
2024-04-30T16:26:56.412Z,17.41
2024-04-30T16:29:26.324Z,18.12
2024-04-30T16:31:56.146Z,17.30
2024-04-30T16:34:26.022Z,17.04
2024-04-30T16:37:04.264Z,17.49
2024-04-30T16:39:34.111Z,17.57
2024-04-30T16:42:05.280Z,17.44
2024-04-30T16:44:41.382Z,17.70
2024-04-30T16:47:12.346Z,16.61
2024-04-30T16:49:42.249Z,17.02
2024-04-30T16:52:09.403Z,16.50
2024-04-30T16:54:39.212Z,16.53
2024-04-30T16:57:09.232Z,16.61
2024-04-30T16:59:38.982Z,17.00
2024-04-30T17:02:12.080Z,18.00
2024-04-30T17:04:39.934Z,17.00
2024-04-30T17:07:09.918Z,17.70
2024-04-30T17:09:39.746Z,19.20
2024-04-30T17:12:09.760Z,19.77
2024-04-30T17:14:40.254Z,19.21
2024-04-30T17:17:09.214Z,19.20
2024-04-30T17:19:41.299Z,19.40
2024-04-30T17:22:10.169Z,20.05
2024-04-30T17:24:40.190Z,20.93
2024-04-30T17:27:11.063Z,21.76
2024-04-30T17:29:44.303Z,21.58
2024-04-30T17:32:11.766Z,22.03
2024-04-30T17:34:41.626Z,22.52
2024-04-30T17:37:08.911Z,22.24
2024-04-30T17:39:41.020Z,22.85
2024-04-30T17:42:11.229Z,23.81
2024-04-30T17:44:41.368Z,23.57
2024-04-30T17:47:08.656Z,22.54
2024-04-30T17:49:38.631Z,23.75
2024-04-30T17:52:06.677Z,23.64
2024-04-30T17:54:36.766Z,22.89
2024-04-30T17:57:04.944Z,23.63
2024-04-30T17:59:37.430Z,23.31
2024-04-30T18:02:05.185Z,25.33
2024-04-30T18:04:35.285Z,24.13
2024-04-30T18:07:03.216Z,25.21
2024-04-30T18:09:33.504Z,25.32
2024-04-30T18:12:00.867Z,25.38
2024-04-30T18:14:30.885Z,25.41
2024-04-30T18:17:03.211Z,26.28
2024-04-30T18:19:34.106Z,25.41
2024-04-30T18:22:01.717Z,25.84
2024-04-30T18:24:32.855Z,25.70
2024-04-30T18:27:00.093Z,25.97
2024-04-30T18:29:31.371Z,26.26
2024-04-30T18:32:04.339Z,26.13
2024-04-30T18:34:31.752Z,26.25
2024-04-30T18:37:07.044Z,26.33
2024-04-30T18:39:37.064Z,25.78
2024-04-30T18:42:07.165Z,26.72
2024-04-30T18:44:37.693Z,27.13
2024-04-30T18:47:07.657Z,26.92
2024-04-30T18:49:37.778Z,27.82
2024-04-30T18:52:05.970Z,28.04
2024-04-30T18:54:35.923Z,27.92
2024-04-30T18:57:04.373Z,27.69
2024-04-30T18:59:34.352Z,28.40
2024-04-30T19:02:01.516Z,28.01
2024-04-30T19:04:34.148Z,28.95
2024-04-30T19:07:01.543Z,28.04
2024-04-30T19:09:31.359Z,28.52
2024-04-30T19:11:58.603Z,29.27
2024-04-30T19:14:29.048Z,29.65
2024-04-30T19:16:56.311Z,28.95
2024-04-30T19:19:26.175Z,28.92
2024-04-30T19:21:56.019Z,29.23
2024-04-30T19:24:25.941Z,28.97
2024-04-30T19:26:53.155Z,28.99
2024-04-30T19:29:22.931Z,29.49
2024-04-30T19:31:50.347Z,29.66
2024-04-30T19:34:20.225Z,29.68
2024-04-30T19:36:47.488Z,28.97
2024-04-30T19:39:20.139Z,29.28
2024-04-30T19:41:47.420Z,29.64
2024-04-30T19:44:17.224Z,29.72
2024-04-30T19:46:44.579Z,28.70
2024-04-30T19:49:14.554Z,29.26
2024-04-30T19:51:42.398Z,29.86
2024-04-30T19:54:12.394Z,29.41
2024-04-30T19:56:42.359Z,31.03
2024-04-30T19:59:12.171Z,30.52
2024-04-30T20:01:39.436Z,30.51
2024-04-30T20:04:12.128Z,31.64
2024-04-30T20:06:42.424Z,33.02
2024-04-30T20:09:14.521Z,33.48
2024-04-30T20:11:44.334Z,33.50
2024-04-30T20:14:14.496Z,34.03
2024-04-30T20:16:41.972Z,34.24
2024-04-30T20:19:11.789Z,34.33
2024-04-30T20:21:39.103Z,34.46
2024-04-30T20:24:11.781Z,34.66
2024-04-30T20:26:39.444Z,35.62
2024-04-30T20:29:12.070Z,35.53
2024-04-30T20:31:42.006Z,35.77
2024-04-30T20:34:12.006Z,35.91
2024-04-30T20:36:39.324Z,36.19
2024-04-30T20:39:09.287Z,35.81
2024-04-30T20:41:37.382Z,35.93
2024-04-30T20:44:07.548Z,35.76
2024-04-30T20:46:40.393Z,35.90
2024-04-30T20:49:11.917Z,36.88
2024-04-30T20:51:43.391Z,36.78
2024-04-30T20:54:13.799Z,36.57
2024-04-30T20:56:41.610Z,37.08
2024-04-30T20:59:13.165Z,37.47
2024-04-30T21:01:43.501Z,38.61
2024-04-30T21:04:13.507Z,37.93
2024-04-30T21:06:41.020Z,37.64
2024-04-30T21:09:10.980Z,37.73
2024-04-30T21:11:38.166Z,37.63
2024-04-30T21:14:08.285Z,37.60
2024-04-30T21:16:38.625Z,37.97
2024-04-30T21:19:11.329Z,37.73
2024-04-30T21:21:42.120Z,37.81
2024-04-30T21:24:14.209Z,37.64
2024-04-30T21:26:42.091Z,37.38
2024-04-30T21:29:12.127Z,38.01
2024-04-30T21:31:39.610Z,38.65
2024-04-30T21:34:12.165Z,38.45
2024-04-30T21:36:45.296Z,38.11
2024-04-30T21:39:16.427Z,37.49
2024-04-30T21:41:43.599Z,37.70
2024-04-30T21:44:13.389Z,38.00
2024-04-30T21:46:41.135Z,39.45
2024-04-30T21:49:15.060Z,39.21
2024-04-30T21:51:46.058Z,38.52
2024-04-30T21:54:16.619Z,38.59
2024-04-30T21:56:44.076Z,38.11
2024-04-30T21:59:13.934Z,37.63
2024-04-30T22:01:46.887Z,37.88
2024-04-30T22:04:19.543Z,38.07
2024-04-30T22:06:47.069Z,39.14
2024-04-30T22:09:17.251Z,38.96
2024-04-30T22:11:44.636Z,37.36
2024-04-30T22:14:14.406Z,37.33
2024-04-30T22:16:41.327Z,37.89
2024-04-30T22:19:11.224Z,37.53
2024-04-30T22:21:41.086Z,37.85
2024-04-30T22:24:11.678Z,37.78
2024-04-30T22:26:38.933Z,37.99
2024-04-30T22:29:08.850Z,37.54
2024-04-30T22:31:36.028Z,38.35
2024-04-30T22:34:06.144Z,38.48
2024-04-30T22:36:33.795Z,39.39
2024-04-30T22:39:06.519Z,38.59
2024-04-30T22:41:33.839Z,38.83
2024-04-30T22:44:03.729Z,39.49
2024-04-30T22:46:30.918Z,39.31
2024-04-30T22:49:00.787Z,38.85
2024-04-30T22:51:31.359Z,40.04
2024-04-30T22:54:01.386Z,40.03
2024-04-30T22:56:34.275Z,39.73
2024-04-30T22:59:04.721Z,40.61
2024-04-30T23:01:31.916Z,40.80
2024-04-30T23:04:02.140Z,40.66
2024-04-30T23:06:31.779Z,40.52
2024-04-30T23:09:01.639Z,40.71
2024-04-30T23:11:31.514Z,41.22
2024-04-30T23:14:01.367Z,40.53
2024-04-30T23:16:28.607Z,39.86
2024-04-30T23:18:58.358Z,39.79
2024-04-30T23:21:25.413Z,40.60
2024-04-30T23:23:55.282Z,39.68
2024-04-30T23:26:22.558Z,40.62
2024-04-30T23:28:55.103Z,40.89
2024-04-30T23:31:22.345Z,40.51
2024-04-30T23:33:52.581Z,40.81
2024-04-30T23:36:20.167Z,40.53
2024-04-30T23:38:50.079Z,40.44
2024-04-30T23:41:17.342Z,41.43
2024-04-30T23:43:47.138Z,41.53
2024-04-30T23:46:17.064Z,41.15
2024-04-30T23:48:47.834Z,40.79
2024-04-30T23:51:15.461Z,40.76
2024-04-30T23:53:46.713Z,41.21
2024-04-30T23:56:16.755Z,42.16
2024-04-30T23:58:45.840Z,41.48
